createdAt,value
2019-03-12T09:20:44.459Z,97.00
2019-03-12T09:26:54.867Z,97.00
2019-03-12T09:29:45.653Z,97.00
2019-03-12T09:32:37.590Z,97.00
2019-03-12T09:35:17.136Z,97.00
2019-03-12T09:38:05.910Z,97.00
2019-03-12T09:40:44.878Z,97.00
2019-03-12T09:43:31.976Z,97.00
2019-03-12T09:46:14.042Z,97.00
2019-03-12T09:49:04.154Z,97.00
2019-03-12T09:51:47.411Z,97.00
2019-03-12T09:54:32.376Z,97.00
2019-03-12T09:57:08.809Z,97.00
2019-03-12T09:59:55.816Z,97.00
2019-03-12T10:02:50.131Z,97.00
2019-03-12T10:05:28.577Z,97.00
2019-03-12T10:08:15.440Z,97.00
2019-03-12T10:11:12.748Z,97.00
2019-03-12T10:14:01.035Z,97.00
2019-03-12T10:16:49.388Z,97.00
2019-03-12T10:19:40.691Z,97.00
2019-03-12T10:22:30.642Z,97.00
2019-03-12T10:25:27.925Z,97.00
2019-03-12T10:28:25.237Z,97.00
2019-03-12T10:31:02.554Z,97.00
2019-03-12T10:34:02.900Z,97.00
2019-03-12T10:37:10.940Z,97.00
2019-03-12T10:40:15.640Z,97.00
2019-03-12T10:43:28.736Z,97.00
2019-03-12T10:46:11.128Z,97.00
2019-03-12T10:48:40.487Z,97.00
2019-03-12T10:51:12.955Z,97.00
2019-03-12T10:53:41.020Z,97.00
2019-03-12T10:56:10.371Z,97.00
2019-03-12T10:58:39.686Z,97.00
2019-03-12T11:01:09.072Z,97.00
2019-03-12T11:03:38.410Z,97.00
2019-03-12T11:06:07.888Z,97.00
2019-03-12T11:08:37.305Z,97.00
2019-03-12T11:11:06.786Z,97.00
2019-03-12T11:13:36.402Z,97.00
2019-03-12T11:16:06.716Z,97.00
2019-03-12T11:18:35.967Z,97.00
2019-03-12T11:21:05.357Z,97.00
2019-03-12T11:23:34.774Z,97.00
2019-03-12T11:26:04.142Z,97.00
2019-03-12T11:28:33.499Z,97.00
2019-03-12T11:31:02.918Z,97.00
2019-03-12T11:33:32.234Z,97.00
2019-03-12T11:36:01.831Z,97.00
2019-03-12T11:38:31.407Z,97.00
2019-03-12T11:41:00.931Z,97.00
2019-03-12T11:43:30.318Z,97.00
2019-03-12T11:45:59.753Z,97.00
2019-03-12T11:48:29.163Z,97.00
2019-03-12T11:50:58.463Z,97.00
2019-03-12T11:53:30.696Z,97.00
2019-03-12T11:56:00.068Z,97.00
2019-03-12T11:58:29.233Z,97.00
2019-03-12T12:01:05.983Z,97.00
2019-03-12T12:03:35.332Z,97.00
2019-03-12T12:06:06.988Z,97.00
2019-03-12T12:08:36.353Z,97.00
2019-03-12T12:11:05.942Z,97.00
2019-03-12T12:13:35.292Z,97.00
2019-03-12T12:16:04.809Z,97.00
2019-03-12T12:18:34.086Z,97.00
2019-03-12T12:21:03.439Z,97.00
2019-03-12T12:23:32.789Z,97.00
2019-03-12T12:26:02.146Z,97.00
2019-03-12T12:28:31.499Z,97.00
2019-03-12T12:31:00.838Z,97.00
2019-03-12T12:33:30.237Z,97.00
2019-03-12T12:35:59.532Z,97.00
2019-03-12T12:38:28.890Z,97.00
2019-03-12T12:40:58.225Z,97.00
2019-03-12T12:43:27.590Z,97.00
2019-03-12T12:45:56.857Z,97.00
2019-03-12T12:48:26.290Z,97.00
2019-03-12T12:51:02.951Z,97.00
2019-03-12T12:53:26.651Z,97.00
2019-03-12T12:55:55.987Z,97.00
2019-03-12T12:58:25.411Z,97.00
2019-03-12T13:00:54.807Z,97.00
2019-03-12T13:03:24.148Z,97.00
2019-03-12T13:05:55.649Z,97.00
2019-03-12T13:08:24.654Z,97.00
2019-03-12T13:10:53.986Z,97.00
2019-03-12T13:13:23.293Z,97.00
2019-03-12T13:15:52.673Z,97.00
2019-03-12T13:18:21.951Z,97.00
2019-03-12T13:20:51.759Z,97.00
2019-03-12T13:23:21.135Z,97.00
2019-03-12T13:25:50.462Z,97.00
2019-03-12T13:28:19.822Z,97.00
2019-03-12T13:30:49.078Z,97.00
2019-03-12T13:33:18.470Z,97.00
2019-03-12T13:35:49.429Z,97.00
2019-03-12T13:38:19.039Z,97.00
2019-03-12T13:40:48.419Z,97.00
2019-03-12T13:43:17.915Z,97.00
2019-03-12T13:45:47.372Z,97.00
2019-03-12T13:48:16.724Z,97.00
2019-03-12T13:50:46.010Z,97.00
2019-03-12T13:53:15.445Z,97.00
2019-03-12T13:55:44.697Z,97.00
2019-03-12T13:58:14.093Z,97.00
2019-03-12T14:00:43.409Z,97.00
2019-03-12T14:03:12.750Z,97.00
2019-03-12T14:05:42.115Z,97.00
2019-03-12T14:08:11.470Z,97.00
2019-03-12T14:10:41.043Z,97.00
2019-03-12T14:13:29.541Z,97.00
2019-03-12T14:15:58.965Z,97.00
2019-03-12T14:18:28.340Z,97.00
2019-03-12T14:21:07.831Z,97.00
2019-03-12T14:24:06.114Z,97.00
2019-03-12T14:26:35.640Z,97.00
2019-03-12T14:29:05.363Z,97.00
2019-03-12T14:31:34.738Z,96.50
2019-03-12T14:34:04.226Z,96.10
2019-03-12T14:36:33.617Z,95.10
2019-03-12T14:39:04.274Z,94.60
2019-03-12T14:41:33.690Z,94.30
2019-03-12T14:44:02.984Z,93.50
2019-03-12T14:46:32.355Z,94.40
2019-03-12T14:49:03.741Z,95.30
2019-03-12T14:51:50.178Z,96.00
2019-03-12T14:54:19.463Z,96.70
2019-03-12T14:56:48.834Z,97.00
2019-03-12T14:59:18.200Z,97.00
2019-03-12T15:01:47.472Z,97.00
2019-03-12T15:04:16.846Z,97.00
2019-03-12T15:06:46.230Z,97.00
2019-03-12T15:09:16.724Z,97.00
2019-03-12T15:11:46.106Z,97.00
2019-03-12T15:14:15.326Z,97.00
2019-03-12T15:16:44.726Z,97.00
2019-03-12T15:19:14.090Z,97.00
2019-03-12T15:21:43.386Z,97.00
2019-03-12T15:24:12.801Z,97.00
2019-03-12T15:26:42.181Z,97.00
2019-03-12T15:29:11.582Z,97.00
2019-03-12T15:31:40.942Z,97.00
2019-03-12T15:34:10.198Z,97.00
2019-03-12T15:36:39.756Z,97.00
2019-03-12T15:39:09.841Z,97.00
2019-03-12T15:41:39.155Z,97.00
2019-03-12T15:44:08.541Z,97.00
2019-03-12T15:46:37.892Z,97.00
2019-03-12T15:49:07.174Z,97.00
2019-03-12T15:51:37.454Z,97.00
2019-03-12T15:54:06.790Z,97.00
2019-03-12T15:56:36.072Z,97.00
2019-03-12T15:59:05.608Z,97.00
2019-03-12T16:01:35.387Z,97.00
2019-03-12T16:04:04.700Z,97.00
2019-03-12T16:06:34.062Z,97.00
2019-03-12T16:09:04.433Z,96.70
2019-03-12T16:11:33.805Z,96.90
2019-03-12T16:14:03.071Z,97.00
2019-03-12T16:16:32.496Z,97.00
2019-03-12T16:19:01.917Z,97.00
2019-03-12T16:21:31.310Z,97.00
2019-03-12T16:24:00.696Z,97.00
2019-03-12T16:26:30.132Z,97.00
2019-03-12T16:28:59.465Z,97.00
2019-03-12T16:31:28.901Z,97.00
2019-03-12T16:33:58.270Z,97.00
2019-03-12T16:36:27.590Z,97.00
2019-03-12T16:38:56.999Z,97.00
2019-03-12T16:41:26.290Z,97.00
2019-03-12T16:43:56.119Z,97.00
2019-03-12T16:46:25.818Z,97.00
2019-03-12T16:48:55.121Z,97.00
2019-03-12T16:51:24.588Z,97.00
2019-03-12T16:53:53.999Z,97.00
2019-03-12T16:56:23.322Z,97.00
2019-03-12T16:58:52.720Z,97.00
2019-03-12T17:01:21.999Z,97.00
2019-03-12T17:03:51.583Z,97.00
2019-03-12T17:06:21.026Z,97.00
2019-03-12T17:08:50.411Z,97.00
2019-03-12T17:11:19.793Z,97.00
2019-03-12T17:13:49.123Z,97.00
2019-03-12T17:16:18.545Z,97.00
2019-03-12T17:18:47.939Z,97.00
2019-03-12T17:21:17.223Z,97.00
2019-03-12T17:23:46.653Z,97.00
2019-03-12T17:26:16.034Z,97.00
2019-03-12T17:28:45.439Z,97.00
2019-03-12T17:31:14.786Z,97.00
2019-03-12T17:33:44.217Z,97.00
2019-03-12T17:36:13.770Z,97.00
2019-03-12T17:38:46.900Z,97.00
2019-03-12T17:41:14.383Z,97.00
2019-03-12T17:43:43.756Z,97.00
2019-03-12T17:46:13.174Z,96.90
2019-03-12T17:48:42.607Z,96.90
2019-03-12T17:51:12.238Z,96.80
2019-03-12T17:53:41.745Z,96.60
2019-03-12T17:56:11.491Z,96.20
2019-03-12T17:58:41.026Z,96.20
2019-03-12T18:01:10.430Z,95.80
2019-03-12T18:03:39.967Z,95.90
2019-03-12T18:06:09.491Z,95.80
2019-03-12T18:08:38.915Z,95.70
2019-03-12T18:11:08.358Z,95.30
2019-03-12T18:13:37.632Z,95.30
2019-03-12T18:16:07.005Z,95.00
2019-03-12T18:18:36.406Z,95.10
2019-03-12T18:21:05.742Z,94.30
2019-03-12T18:23:35.093Z,94.40
2019-03-12T18:26:06.044Z,94.20
2019-03-12T18:28:35.281Z,93.60
2019-03-12T18:31:04.656Z,93.30
2019-03-12T18:33:33.989Z,93.60
2019-03-12T18:36:03.434Z,92.60
2019-03-12T18:38:32.815Z,92.20
2019-03-12T18:41:02.197Z,91.50
2019-03-12T18:43:31.587Z,90.90
2019-03-12T18:46:00.979Z,90.60
2019-03-12T18:48:32.429Z,89.90
2019-03-12T18:51:11.126Z,89.60
2019-03-12T18:53:40.515Z,89.40
2019-03-12T18:56:10.403Z,89.60
2019-03-12T18:58:39.909Z,88.70
2019-03-12T19:01:13.980Z,88.70
2019-03-12T19:03:43.399Z,88.10
2019-03-12T19:06:12.841Z,88.10
2019-03-12T19:08:47.457Z,87.60
2019-03-12T19:11:13.372Z,87.00
2019-03-12T19:13:43.473Z,87.30
2019-03-12T19:16:13.058Z,87.20
2019-03-12T19:18:42.528Z,86.80
2019-03-12T19:21:12.076Z,87.10
2019-03-12T19:23:41.740Z,86.80
2019-03-12T19:26:12.176Z,86.60
2019-03-12T19:28:41.790Z,86.90
2019-03-12T19:31:25.021Z,86.50
2019-03-12T19:33:56.047Z,86.40
2019-03-12T19:36:25.334Z,86.40
2019-03-12T19:38:54.736Z,85.90
2019-03-12T19:41:26.671Z,85.60
2019-03-12T19:43:56.105Z,85.30
2019-03-12T19:46:25.437Z,85.30
2019-03-12T19:48:54.820Z,84.80
2019-03-12T19:51:24.181Z,85.30
2019-03-12T19:53:53.592Z,85.00
2019-03-12T19:56:22.995Z,85.20
2019-03-12T19:58:52.325Z,84.90
2019-03-12T20:01:22.387Z,84.70
2019-03-12T20:03:51.860Z,84.80
2019-03-12T20:06:21.143Z,85.60
2019-03-12T20:08:50.547Z,84.90
2019-03-12T20:12:06.090Z,85.40
2019-03-12T20:15:18.106Z,85.20
2019-03-12T20:18:42.689Z,85.10
2019-03-12T20:21:39.471Z,85.60
2019-03-12T20:25:10.833Z,85.50
2019-03-12T20:28:08.423Z,85.60
2019-03-12T20:31:14.770Z,86.00
2019-03-12T20:34:07.182Z,88.10
2019-03-12T20:37:13.746Z,90.20
2019-03-12T20:40:20.174Z,90.30
2019-03-12T20:43:36.657Z,89.40
2019-03-12T20:47:00.597Z,90.30
2019-03-12T20:50:06.077Z,89.90
2019-03-12T20:53:25.325Z,90.00
2019-03-12T20:56:31.529Z,90.20
2019-03-12T20:59:52.896Z,89.30
2019-03-12T21:02:46.522Z,89.40
2019-03-12T21:05:45.703Z,90.60
2019-03-12T21:08:52.107Z,90.00
2019-03-12T21:12:11.365Z,90.80
2019-03-12T21:15:28.521Z,92.90
2019-03-12T21:18:51.053Z,94.70
2019-03-12T21:22:03.470Z,94.80
2019-03-12T21:25:18.673Z,95.70
2019-03-12T21:28:17.899Z,97.00
2019-03-12T21:30:47.226Z,97.00
2019-03-12T21:33:16.579Z,97.00
2019-03-12T21:35:46.015Z,97.00
2019-03-12T21:38:15.331Z,97.00
2019-03-12T21:40:44.702Z,97.00
2019-03-12T21:43:14.170Z,97.00
2019-03-12T21:45:43.453Z,97.00
2019-03-12T21:48:12.994Z,97.00
2019-03-12T21:50:42.345Z,97.00
2019-03-12T21:53:11.706Z,97.00
2019-03-12T21:55:41.226Z,97.00
2019-03-12T21:58:10.482Z,97.00
2019-03-12T22:00:39.992Z,97.00
2019-03-12T22:03:09.327Z,97.00
2019-03-12T22:05:38.667Z,97.00
2019-03-12T22:08:08.038Z,97.00
2019-03-12T22:10:37.198Z,97.00
2019-03-12T22:13:06.639Z,97.00
2019-03-12T22:15:35.990Z,97.00
2019-03-12T22:18:05.421Z,97.00
2019-03-12T22:20:34.791Z,97.00
2019-03-12T22:23:11.654Z,97.00
2019-03-12T22:25:41.056Z,97.00
2019-03-12T22:28:10.388Z,97.00
2019-03-12T22:30:39.841Z,97.00
2019-03-12T22:33:09.123Z,97.00
2019-03-12T22:35:38.452Z,97.00
2019-03-12T22:38:07.863Z,97.00
2019-03-12T22:40:37.225Z,97.00
2019-03-12T22:43:06.567Z,97.00
2019-03-12T22:45:35.852Z,97.00
2019-03-12T22:48:05.195Z,97.00
2019-03-12T22:50:34.641Z,97.00
2019-03-12T22:53:04.004Z,97.00
2019-03-12T22:55:33.325Z,97.00
2019-03-12T22:58:02.770Z,97.00
2019-03-12T23:00:38.135Z,97.00
2019-03-12T23:03:07.712Z,97.00
2019-03-12T23:05:37.043Z,97.00
2019-03-12T23:08:06.348Z,97.00
2019-03-12T23:10:35.695Z,97.00
2019-03-12T23:13:05.027Z,97.00
2019-03-12T23:15:34.522Z,97.00
2019-03-12T23:18:03.763Z,97.00
2019-03-12T23:20:33.066Z,97.00
2019-03-12T23:23:02.463Z,97.00
2019-03-12T23:25:31.782Z,97.00
2019-03-12T23:28:01.149Z,97.00
2019-03-12T23:30:30.607Z,97.00
2019-03-12T23:32:59.995Z,97.00
2019-03-12T23:35:29.328Z,97.00
2019-03-12T23:37:58.667Z,97.00
2019-03-12T23:40:27.924Z,97.00
2019-03-12T23:42:57.375Z,97.00
2019-03-12T23:45:26.694Z,97.00
2019-03-12T23:47:55.992Z,97.00
2019-03-12T23:50:26.773Z,97.00
2019-03-12T23:52:56.044Z,97.00
2019-03-12T23:55:25.445Z,97.00
2019-03-12T23:57:54.704Z,97.00
